Time;durP1;ratioP1;P1;durP2;ratioP2;P2;SDS_P1;SDS_P2;PMS_P1;PMS_P2;Temp;Humidity;BMP_temperature;BMP_pressure;BME280_temperature;BME280_humidity;BME280_pressure;Samples;Min_cycle;Max_cycle;Signal;HPM_P1;HPM_P2
2022/04/15 00:02:06;;;;;;;7.57;6.47;;;;;;;12.50;100.00;99640.19;5051614;28;20197;-80
2022/04/15 00:04:35;;;;;;;8.07;6.60;;;;;;;12.50;100.00;99641.03;5044724;28;20205;-81
2022/04/15 00:07:05;;;;;;;7.80;6.73;;;;;;;12.55;100.00;99644.25;5048106;28;20225;-81
2022/04/15 00:09:35;;;;;;;8.83;6.87;;;;;;;12.44;100.00;99646.72;5052563;28;20216;-80
2022/04/15 00:12:10;;;;;;;7.47;6.67;;;;;;;12.51;100.00;99648.03;5050142;28;20717;-81
2022/04/15 00:14:38;;;;;;;8.00;7.20;;;;;;;12.29;100.00;99648.56;5047049;28;20356;-81
2022/04/15 00:17:07;;;;;;;8.33;6.70;;;;;;;12.24;100.00;99657.75;5050026;28;20226;-80
2022/04/15 00:19:36;;;;;;;9.80;7.13;;;;;;;12.32;100.00;99655.47;5049407;28;20193;-81
2022/04/15 00:22:07;;;;;;;7.83;6.97;;;;;;;12.15;100.00;99655.69;5050588;28;20257;-82
2022/04/15 00:24:37;;;;;;;11.07;8.27;;;;;;;12.07;100.00;99650.88;5050581;28;20193;-81
2022/04/15 00:27:07;;;;;;;10.10;8.00;;;;;;;11.94;100.00;99657.88;5015165;28;20249;-81
2022/04/15 00:29:37;;;;;;;12.33;8.30;;;;;;;12.01;100.00;99653.91;5016982;28;20222;-82
2022/04/15 00:32:09;;;;;;;11.60;8.17;;;;;;;11.70;100.00;99650.44;4978824;28;20208;-81
2022/04/15 00:34:38;;;;;;;12.10;9.40;;;;;;;11.66;100.00;99658.66;4965054;28;20320;-81
2022/04/15 00:37:09;;;;;;;11.10;8.30;;;;;;;11.67;100.00;99658.56;4967375;28;20207;-81
2022/04/15 00:39:45;;;;;;;10.93;9.03;;;;;;;11.66;100.00;99666.63;4966491;28;20199;-82
2022/04/15 00:42:14;;;;;;;9.70;8.67;;;;;;;11.73;100.00;99663.50;4970519;28;20275;-81
2022/04/15 00:44:44;;;;;;;10.47;9.37;;;;;;;11.82;100.00;99671.91;4984155;28;20216;-80
2022/04/15 00:47:20;;;;;;;9.97;8.93;;;;;;;11.77;100.00;99672.13;5028074;28;20201;-81
2022/04/15 00:49:49;;;;;;;10.00;8.97;;;;;;;11.68;100.00;99667.41;5038815;28;20223;-80
2022/04/15 00:52:21;;;;;;;11.93;9.87;;;;;;;11.69;100.00;99674.41;5063452;28;20279;-81
2022/04/15 00:54:56;;;;;;;10.93;9.77;;;;;;;11.66;100.00;99677.22;5062213;28;20195;-81
2022/04/15 00:57:27;;;;;;;14.53;10.60;;;;;;;11.67;100.00;99669.19;5065871;28;20204;-82
2022/04/15 00:59:55;;;;;;;13.77;10.30;;;;;;;11.59;100.00;99676.78;5065566;28;20207;-81
2022/04/15 01:02:27;;;;;;;13.53;10.47;;;;;;;11.56;100.00;99676.94;5061818;28;20216;-82
2022/04/15 01:05:00;;;;;;;13.63;10.47;;;;;;;11.62;100.00;99678.38;5061897;28;20196;-80
2022/04/15 01:07:34;;;;;;;13.97;10.13;;;;;;;11.48;100.00;99676.53;5065224;28;20220;-81
2022/04/15 01:10:08;;;;;;;13.17;10.30;;;;;;;11.42;100.00;99685.72;5068658;28;20203;-81
2022/04/15 01:12:46;;;;;;;12.77;10.10;;;;;;;11.39;100.00;99685.06;5069718;28;20202;-81
2022/04/15 01:15:35;;;;;;;12.30;11.00;;;;;;;11.33;100.00;99683.63;5078971;28;20200;-82
2022/04/15 01:18:05;;;;;;;11.43;10.27;;;;;;;11.22;100.00;99682.53;5071609;28;20279;-81
2022/04/15 01:20:35;;;;;;;12.53;10.33;;;;;;;11.14;100.00;99688.28;5011959;28;20201;-81
2022/04/15 01:23:09;;;;;;;13.30;9.73;;;;;;;11.11;100.00;99697.28;5011538;28;20217;-82
2022/04/15 01:25:43;;;;;;;12.70;9.73;;;;;;;10.89;100.00;99694.13;5010354;28;20201;-81
2022/04/15 01:28:16;;;;;;;11.27;9.00;;;;;;;10.78;100.00;99689.41;5012670;28;20214;-82
2022/04/15 01:30:49;;;;;;;10.87;9.80;;;;;;;10.89;100.00;99697.63;5010629;28;20259;-81
2022/04/15 01:33:21;;;;;;;10.17;9.00;;;;;;;10.79;100.00;99698.22;5010323;28;20190;-81
2022/04/15 01:35:54;;;;;;;12.60;9.93;;;;;;;10.84;100.00;99696.19;4936750;29;20775;-80
2022/04/15 01:38:25;;;;;;;12.43;9.93;;;;;;;10.65;100.00;99699.00;4934445;29;20692;-81
2022/04/15 01:40:56;;;;;;;12.53;10.20;;;;;;;10.57;100.00;99695.94;4934805;29;20208;-81
2022/04/15 01:43:25;;;;;;;12.33;9.47;;;;;;;10.61;100.00;99697.44;4931135;29;20204;-81
2022/04/15 01:45:56;;;;;;;11.73;9.67;;;;;;;10.50;100.00;99695.41;4916935;29;20317;-81
2022/04/15 01:48:26;;;;;;;11.90;10.13;;;;;;;10.62;100.00;99703.63;4911255;29;20221;-81
2022/04/15 01:50:57;;;;;;;14.20;11.00;;;;;;;10.64;100.00;99701.75;4910815;29;20689;-81
2022/04/15 01:53:28;;;;;;;13.77;10.67;;;;;;;10.70;100.00;99707.53;4913879;29;20324;-80
2022/04/15 01:55:56;;;;;;;14.30;11.37;;;;;;;10.66;100.00;99703.38;4930548;29;20212;-81
2022/04/15 01:58:30;;;;;;;14.00;11.17;;;;;;;10.71;100.00;99708.41;4879951;29;20222;-80
2022/04/15 02:01:00;;;;;;;12.97;11.10;;;;;;;10.65;100.00;99717.56;4900421;29;20210;-81
2022/04/15 02:03:29;;;;;;;12.20;10.90;;;;;;;10.69;100.00;99716.44;4878908;29;20281;-81
2022/04/15 02:05:57;;;;;;;12.30;11.00;;;;;;;10.76;100.00;99706.34;4876086;29;20207;-81
2022/04/15 02:08:28;;;;;;;12.73;11.13;;;;;;;10.73;100.00;99707.38;4882068;29;20319;-81
2022/04/15 02:10:58;;;;;;;14.10;11.63;;;;;;;10.70;100.00;99709.34;4844689;29;20216;-79
2022/04/15 02:13:31;;;;;;;13.20;10.60;;;;;;;10.65;100.00;99712.25;4840116;29;20212;-81
2022/04/15 02:15:59;;;;;;;13.50;11.83;;;;;;;10.67;100.00;99713.03;4860757;29;20207;-81
2022/04/15 02:18:33;;;;;;;16.97;11.63;;;;;;;10.59;100.00;99718.72;4879767;29;20195;-81
2022/04/15 02:21:04;;;;;;;15.57;11.90;;;;;;;10.67;100.00;99710.38;4914876;28;20650;-80
2022/04/15 02:23:37;;;;;;;14.60;11.60;;;;;;;10.69;100.00;99728.81;4970694;28;20651;-81
2022/04/15 02:26:05;;;;;;;14.87;12.23;;;;;;;10.71;100.00;99722.53;4970504;28;20198;-81
2022/04/15 02:28:35;;;;;;;14.10;11.60;;;;;;;10.63;100.00;99723.88;4985515;28;20225;-81
2022/04/15 02:31:07;;;;;;;13.63;11.97;;;;;;;10.65;100.00;99727.28;5025940;28;20202;-81
2022/04/15 02:33:37;;;;;;;14.07;11.33;;;;;;;10.47;100.00;99730.00;5035607;28;20207;-81
2022/04/15 02:36:07;;;;;;;12.93;11.30;;;;;;;10.47;100.00;99734.44;5069015;28;20192;-82
2022/04/15 02:38:37;;;;;;;12.13;10.93;;;;;;;10.34;100.00;99734.28;4917685;29;20233;-80
2022/04/15 02:41:08;;;;;;;12.07;10.47;;;;;;;10.30;100.00;99724.75;4906329;29;20217;-81
2022/04/15 02:43:39;;;;;;;13.43;10.60;;;;;;;10.21;100.00;99730.50;4876033;29;20199;-81
2022/04/15 02:46:11;;;;;;;12.20;10.90;;;;;;;10.21;100.00;99726.06;4877744;29;20235;-80
2022/04/15 02:48:40;;;;;;;12.57;10.57;;;;;;;10.03;100.00;99727.91;4878983;29;20226;-81
2022/04/15 02:51:09;;;;;;;12.07;10.57;;;;;;;10.19;100.00;99722.66;4876767;29;20663;-81
2022/04/15 02:53:46;;;;;;;15.97;11.70;;;;;;;10.25;100.00;99732.13;4876282;29;20218;-81
2022/04/15 02:56:15;;;;;;;14.63;12.37;;;;;;;10.35;100.00;99733.31;4895356;29;20228;-81
2022/04/15 02:58:46;;;;;;;15.80;11.90;;;;;;;10.40;100.00;99735.72;4950151;29;20204;-80
2022/04/15 03:01:15;;;;;;;15.97;11.87;;;;;;;10.52;100.00;99729.78;4959717;28;20195;-81
2022/04/15 03:03:44;;;;;;;14.30;12.00;;;;;;;10.38;100.00;99733.16;4990007;28;20206;-81
2022/04/15 03:06:17;;;;;;;15.33;12.07;;;;;;;10.29;100.00;99737.16;4994657;28;20369;-81
2022/04/15 03:08:47;;;;;;;15.87;12.00;;;;;;;10.39;100.00;99742.81;4952764;28;20216;-81
2022/04/15 03:11:16;;;;;;;13.50;11.77;;;;;;;10.25;100.00;99735.63;4936328;29;20233;-81
2022/04/15 03:13:45;;;;;;;14.70;12.57;;;;;;;10.21;100.00;99741.09;4934471;29;20200;-80
2022/04/15 03:16:14;;;;;;;15.73;12.40;;;;;;;10.23;100.00;99741.91;4930940;29;20193;-81
2022/04/15 03:18:42;;;;;;;15.97;12.63;;;;;;;10.13;100.00;99744.16;4933745;29;20303;-81
2022/04/15 03:21:12;;;;;;;15.40;12.57;;;;;;;10.12;100.00;99744.25;4931081;29;20265;-80
2022/04/15 03:23:42;;;;;;;13.70;11.60;;;;;;;10.03;100.00;99738.47;4926289;29;20209;-81
2022/04/15 03:26:12;;;;;;;14.30;12.37;;;;;;;9.97;100.00;99746.75;4942778;28;20194;-80
2022/04/15 03:28:41;;;;;;;16.00;12.67;;;;;;;10.11;100.00;99739.88;4979004;28;20201;-81
2022/04/15 03:31:11;;;;;;;15.23;12.70;;;;;;;10.04;100.00;99742.00;5030919;28;20272;-82
2022/04/15 03:33:40;;;;;;;13.93;12.10;;;;;;;10.14;100.00;99747.69;5029747;28;20190;-80
2022/04/15 03:36:15;;;;;;;14.50;12.43;;;;;;;10.07;100.00;99746.28;5026801;28;20202;-81
2022/04/15 03:38:46;;;;;;;12.93;11.37;;;;;;;10.10;100.00;99748.75;4949463;29;20204;-79
2022/04/15 03:41:16;;;;;;;15.60;11.57;;;;;;;9.90;100.00;99749.81;4948870;29;20216;-81
2022/04/15 03:43:47;;;;;;;13.73;11.10;;;;;;;9.83;100.00;99751.03;4977681;28;20209;-81
2022/04/15 03:46:16;;;;;;;14.47;12.47;;;;;;;10.08;100.00;99746.19;4948575;28;20240;-82
2022/04/15 03:48:44;;;;;;;16.23;13.17;;;;;;;9.92;100.00;99750.56;4950103;29;20205;-80
2022/04/15 03:51:13;;;;;;;16.10;11.80;;;;;;;10.09;100.00;99753.19;4948403;29;20204;-80
2022/04/15 03:53:41;;;;;;;16.07;12.57;;;;;;;10.01;100.00;99748.31;4951558;29;20252;-81
2022/04/15 03:56:10;;;;;;;15.43;12.40;;;;;;;10.01;100.00;99758.03;4943360;29;20318;-81
2022/04/15 03:58:41;;;;;;;14.00;12.27;;;;;;;10.09;100.00;99758.50;4873405;29;20221;-81
2022/04/15 04:01:11;;;;;;;12.57;11.27;;;;;;;10.01;100.00;99758.88;4873267;29;20278;-81
2022/04/15 04:03:41;;;;;;;12.77;11.33;;;;;;;9.92;100.00;99756.72;4896614;29;20289;-81
2022/04/15 04:06:10;;;;;;;13.43;10.90;;;;;;;9.96;100.00;99757.44;4913132;29;20285;-81
2022/04/15 04:08:48;;;;;;;13.17;10.43;;;;;;;9.93;100.00;99754.94;4913642;29;20222;-81
2022/04/15 04:11:19;;;;;;;13.50;11.07;;;;;;;10.02;100.00;99754.44;4966219;28;20323;-81
2022/04/15 04:13:50;;;;;;;12.87;11.13;;;;;;;10.08;100.00;99755.94;4935055;29;20252;-81
2022/04/15 04:16:19;;;;;;;13.37;11.70;;;;;;;10.08;100.00;99750.63;4880827;29;20260;-81
2022/04/15 04:18:48;;;;;;;14.83;11.67;;;;;;;9.95;100.00;99753.09;4927184;29;20209;-81
2022/04/15 04:21:17;;;;;;;15.57;12.47;;;;;;;9.95;100.00;99750.44;4912278;29;20251;-81
2022/04/15 04:23:46;;;;;;;14.60;12.37;;;;;;;10.01;100.00;99747.44;4875011;29;20203;-81
2022/04/15 04:26:15;;;;;;;13.33;11.93;;;;;;;10.03;100.00;99748.22;4874454;29;20210;-81
2022/04/15 04:28:45;;;;;;;14.17;12.37;;;;;;;9.99;100.00;99759.91;4875871;29;20199;-81
2022/04/15 04:31:17;;;;;;;13.47;12.07;;;;;;;9.98;100.00;99758.19;4880061;29;20320;-80
2022/04/15 04:33:46;;;;;;;15.50;12.30;;;;;;;9.88;100.00;99752.53;4900819;29;20214;-80
2022/04/15 04:36:15;;;;;;;15.20;12.30;;;;;;;9.72;100.00;99756.88;4946556;29;20200;-81
2022/04/15 04:38:44;;;;;;;15.67;12.40;;;;;;;9.73;100.00;99756.81;4918537;28;20196;-80
2022/04/15 04:41:16;;;;;;;14.43;12.40;;;;;;;9.72;100.00;99763.03;4980690;28;20193;-80
2022/04/15 04:43:49;;;;;;;16.30;13.30;;;;;;;9.63;100.00;99770.56;5048302;28;20258;-81
2022/04/15 04:46:20;;;;;;;15.73;12.63;;;;;;;9.59;100.00;99772.53;5049560;28;20212;-80
2022/04/15 04:48:52;;;;;;;14.77;12.47;;;;;;;9.41;100.00;99773.44;4989597;28;20634;-81
2022/04/15 04:51:21;;;;;;;15.27;12.37;;;;;;;9.33;100.00;99778.25;4986339;28;20226;-80
2022/04/15 04:53:50;;;;;;;13.93;11.33;;;;;;;9.31;100.00;99772.19;4990431;28;20207;-80
2022/04/15 04:56:18;;;;;;;16.40;12.67;;;;;;;9.31;100.00;99785.41;4990146;28;20195;-80
2022/04/15 04:58:49;;;;;;;14.83;12.43;;;;;;;9.39;100.00;99785.88;5002628;28;20211;-81
2022/04/15 05:01:20;;;;;;;13.77;11.83;;;;;;;9.26;100.00;99787.41;5008514;28;20285;-80
2022/04/15 05:03:49;;;;;;;14.67;12.23;;;;;;;9.33;100.00;99787.03;5004638;28;20285;-80
2022/04/15 05:06:30;;;;;;;13.70;10.97;;;;;;;9.28;100.00;99788.19;5032897;28;20199;-81
2022/04/15 05:09:00;;;;;;;12.63;11.33;;;;;;;9.36;100.00;99792.19;5081920;28;20192;-80
2022/04/15 05:11:31;;;;;;;14.33;12.30;;;;;;;9.36;100.00;99791.31;5086698;28;20214;-81
2022/04/15 05:14:01;;;;;;;14.67;12.50;;;;;;;9.37;100.00;99795.69;5084808;28;20203;-80
2022/04/15 05:16:36;;;;;;;14.90;11.90;;;;;;;9.22;100.00;99793.78;5091681;28;20275;-80
2022/04/15 05:19:05;;;;;;;14.80;12.00;;;;;;;9.51;100.00;99801.13;5041959;28;20238;-80
2022/04/15 05:21:35;;;;;;;14.07;12.50;;;;;;;9.30;100.00;99797.75;4989213;28;20203;-80
2022/04/15 05:24:09;;;;;;;16.03;12.13;;;;;;;9.38;100.00;99806.19;4968964;28;20262;-81
2022/04/15 05:26:38;;;;;;;15.73;11.73;;;;;;;9.60;100.00;99799.84;4968854;28;20211;-81
2022/04/15 05:29:10;;;;;;;14.17;11.73;;;;;;;9.59;100.00;99801.63;4967961;28;20221;-79
2022/04/15 05:31:43;;;;;;;15.20;11.90;;;;;;;9.63;100.00;99803.16;4970065;28;20231;-80
2022/04/15 05:34:12;;;;;;;12.40;11.10;;;;;;;9.75;100.00;99809.66;4961686;28;20665;-80
2022/04/15 05:36:41;;;;;;;15.90;12.33;;;;;;;9.58;100.00;99805.19;4966323;28;20259;-80
2022/04/15 05:39:10;;;;;;;13.50;12.07;;;;;;;9.53;100.00;99809.84;4985801;28;20242;-80
2022/04/15 05:41:38;;;;;;;14.00;11.80;;;;;;;9.56;100.00;99808.88;5054585;28;20199;-81
2022/04/15 05:44:08;;;;;;;13.30;11.90;;;;;;;9.53;100.00;99811.63;5081198;28;20202;-80
2022/04/15 05:46:39;;;;;;;13.30;11.93;;;;;;;9.57;100.00;99811.44;5082383;28;20241;-80
2022/04/15 05:49:18;;;;;;;17.13;12.30;;;;;;;9.43;100.00;99820.00;5086957;28;20234;-82
2022/04/15 05:51:49;;;;;;;15.13;13.20;;;;;;;9.51;100.00;99814.34;5005506;28;20255;-80
2022/04/15 05:54:18;;;;;;;16.17;13.53;;;;;;;9.87;100.00;99819.63;5007347;28;20191;-81
2022/04/15 05:56:48;;;;;;;17.27;13.70;;;;;;;9.81;100.00;99817.28;5004295;28;20234;-80
2022/04/15 05:59:20;;;;;;;15.33;13.17;;;;;;;9.93;100.00;99827.22;5003288;28;20221;-79
2022/04/15 06:01:51;;;;;;;17.33;13.10;;;;;;;9.97;100.00;99825.31;4931181;29;20197;-80
2022/04/15 06:04:22;;;;;;;13.97;12.47;;;;;;;10.19;100.00;99836.50;4930159;29;20193;-81
2022/04/15 06:06:53;;;;;;;16.27;13.60;;;;;;;10.23;100.00;99832.81;4926639;29;20269;-80
2022/04/15 06:09:22;;;;;;;16.63;14.53;;;;;;;10.32;100.00;99829.66;4931550;29;20216;-81
2022/04/15 06:11:56;;;;;;;15.73;13.87;;;;;;;10.53;100.00;99837.44;4896693;29;20234;-81
2022/04/15 06:14:27;;;;;;;17.10;14.60;;;;;;;10.58;100.00;99838.03;4895771;29;20266;-81
2022/04/15 06:16:56;;;;;;;19.23;15.17;;;;;;;10.72;100.00;99842.59;4950321;28;20207;-81
2022/04/15 06:19:29;;;;;;;16.03;13.47;;;;;;;10.78;100.00;99845.75;4998497;28;20290;-80
2022/04/15 06:22:08;;;;;;;15.67;13.23;;;;;;;10.84;100.00;99844.59;5070336;28;20202;-81
2022/04/15 06:24:37;;;;;;;18.37;13.90;;;;;;;10.94;100.00;99850.25;5072696;28;20308;-81
2022/04/15 06:27:07;;;;;;;17.50;14.20;;;;;;;10.88;100.00;99852.28;5066745;28;20204;-80
2022/04/15 06:29:37;;;;;;;16.87;14.00;;;;;;;10.93;100.00;99857.34;5033850;28;20265;-80
2022/04/15 06:32:08;;;;;;;16.43;14.73;;;;;;;11.01;100.00;99849.84;5042425;28;20216;-81
2022/04/15 06:34:39;;;;;;;16.40;14.30;;;;;;;11.10;100.00;99856.44;5052704;28;20193;-81
2022/04/15 06:37:12;;;;;;;18.67;14.63;;;;;;;11.29;100.00;99851.81;5042373;28;20197;-81
2022/04/15 06:39:42;;;;;;;15.10;12.93;;;;;;;11.36;100.00;99852.31;5046880;28;20675;-80
2022/04/15 06:42:11;;;;;;;17.67;13.87;;;;;;;11.41;100.00;99853.78;5045166;28;20197;-80
2022/04/15 06:44:39;;;;;;;17.37;13.73;;;;;;;11.51;100.00;99855.91;5047137;28;20676;-81
2022/04/15 06:47:09;;;;;;;15.57;13.93;;;;;;;11.58;100.00;99846.63;5051393;28;20196;-81
2022/04/15 06:49:39;;;;;;;16.10;12.73;;;;;;;11.53;100.00;99859.34;5025036;28;20219;-80
2022/04/15 06:52:08;;;;;;;15.13;12.87;;;;;;;11.71;100.00;99852.97;5026690;28;20244;-80
2022/04/15 06:54:37;;;;;;;15.47;12.50;;;;;;;11.89;100.00;99859.06;4990272;28;20258;-80
2022/04/15 06:57:06;;;;;;;14.40;12.37;;;;;;;11.95;100.00;99864.00;4988341;28;20195;-80
2022/04/15 06:59:38;;;;;;;13.93;11.83;;;;;;;12.07;100.00;99860.63;4991049;28;20230;-81
2022/04/15 07:02:08;;;;;;;14.17;12.27;;;;;;;12.07;100.00;99865.09;4990186;28;20230;-80
2022/04/15 07:04:39;;;;;;;14.30;11.73;;;;;;;12.26;100.00;99863.91;4975380;28;20191;-80
2022/04/15 07:07:08;;;;;;;15.83;11.87;;;;;;;12.38;100.00;99861.47;5012126;28;20223;-80
2022/04/15 07:09:39;;;;;;;16.13;11.33;;;;;;;12.40;100.00;99862.22;5032253;28;20229;-81
2022/04/15 07:12:12;;;;;;;14.83;12.20;;;;;;;12.31;100.00;99861.81;5029768;28;20341;-81
2022/04/15 07:14:41;;;;;;;13.43;11.70;;;;;;;12.38;100.00;99854.34;4952325;29;20200;-80
2022/04/15 07:17:10;;;;;;;13.73;11.13;;;;;;;12.39;100.00;99860.53;4950360;29;20201;-80
2022/04/15 07:19:44;;;;;;;13.20;10.60;;;;;;;12.52;100.00;99854.34;4960863;28;20208;-80
2022/04/15 07:22:18;;;;;;;13.03;10.67;;;;;;;12.62;100.00;99859.97;4967449;28;20199;-81
2022/04/15 07:24:47;;;;;;;13.57;10.80;;;;;;;12.72;100.00;99857.59;4966880;28;20206;-80
2022/04/15 07:27:17;;;;;;;12.57;10.70;;;;;;;12.53;100.00;99858.72;4974423;28;20197;-80
2022/04/15 07:29:47;;;;;;;13.13;10.23;;;;;;;12.84;100.00;99857.72;4915372;29;20221;-81
2022/04/15 07:32:21;;;;;;;12.37;9.37;;;;;;;13.03;100.00;99860.09;4928402;28;20216;-81
2022/04/15 07:34:55;;;;;;;14.03;9.00;;;;;;;13.05;100.00;99854.66;4930717;29;20529;-80
2022/04/15 07:37:36;;;;;;;10.70;8.03;;;;;;;13.24;100.00;99860.56;4920179;29;20266;-81
2022/04/15 07:40:07;;;;;;;10.50;7.83;;;;;;;13.15;100.00;99864.63;4912903;29;20299;-81
2022/04/15 07:42:35;;;;;;;9.43;6.43;;;;;;;12.67;100.00;99871.19;4916082;29;20201;-81
2022/04/15 07:45:06;;;;;;;9.03;5.90;;;;;;;12.67;100.00;99857.91;4884081;29;20224;-80
2022/04/15 07:47:35;;;;;;;8.30;5.90;;;;;;;12.86;100.00;99866.44;4945459;28;20199;-81
2022/04/15 07:50:24;;;;;;;5.67;4.87;;;;;;;12.97;100.00;99860.47;4972177;28;20643;-81
2022/04/15 07:52:55;;;;;;;7.27;5.20;;;;;;;13.05;100.00;99863.50;4981821;28;20226;-80
2022/04/15 07:55:29;;;;;;;8.37;5.40;;;;;;;13.29;100.00;99860.25;5011379;28;20193;-81
2022/04/15 07:57:59;;;;;;;7.20;5.43;;;;;;;13.23;100.00;99864.19;5012841;28;20250;-82
2022/04/15 08:00:31;;;;;;;7.07;5.00;;;;;;;13.49;100.00;99869.63;5003950;28;20199;-80
2022/04/15 08:03:00;;;;;;;11.03;5.57;;;;;;;13.59;100.00;99868.06;4985226;28;20253;-81
2022/04/15 08:05:31;;;;;;;6.23;5.10;;;;;;;13.65;100.00;99865.88;5027015;28;20198;-81
2022/04/15 08:08:02;;;;;;;6.43;4.37;;;;;;;13.53;100.00;99879.97;4992539;28;20205;-81
2022/04/15 08:10:30;;;;;;;9.40;4.90;;;;;;;13.50;100.00;99877.50;4966769;28;20195;-81
2022/04/15 08:12:59;;;;;;;7.80;4.80;;;;;;;13.36;100.00;99881.06;4938745;28;20216;-81
2022/04/15 08:15:28;;;;;;;7.07;4.90;;;;;;;13.57;100.00;99881.47;4967434;28;20199;-81
2022/04/15 08:17:58;;;;;;;6.97;4.03;;;;;;;13.49;100.00;99889.09;4968843;28;20207;-81
2022/04/15 08:20:33;;;;;;;8.00;4.53;;;;;;;13.57;100.00;99889.47;4935833;29;20197;-81
2022/04/15 08:23:03;;;;;;;7.57;4.43;;;;;;;13.74;100.00;99886.56;4947824;29;20720;-81
2022/04/15 08:25:32;;;;;;;5.70;4.77;;;;;;;13.96;100.00;99885.16;4947028;29;20200;-81
2022/04/15 08:28:01;;;;;;;5.37;4.40;;;;;;;14.05;100.00;99884.53;4954255;28;20215;-81
2022/04/15 08:30:35;;;;;;;5.70;4.03;;;;;;;14.36;100.00;99885.13;4968310;28;20275;-81
2022/04/15 08:33:05;;;;;;;6.93;4.03;;;;;;;14.52;100.00;99884.03;4983405;28;20230;-81
2022/04/15 08:35:36;;;;;;;5.40;3.63;;;;;;;14.39;100.00;99883.13;4997952;28;20194;-81
2022/04/15 08:38:05;;;;;;;5.83;3.63;;;;;;;14.39;100.00;99884.94;5043219;28;20227;-81
2022/04/15 08:40:36;;;;;;;3.60;3.17;;;;;;;14.20;100.00;99878.19;5056707;28;20199;-81
2022/04/15 08:43:07;;;;;;;4.20;3.10;;;;;;;14.50;100.00;99882.44;5094303;28;20191;-81
2022/04/15 08:45:41;;;;;;;4.07;3.10;;;;;;;14.61;100.00;99885.22;5090245;28;20749;-81
2022/04/15 08:48:11;;;;;;;6.20;3.43;;;;;;;13.96;100.00;99887.81;5086976;28;20199;-81
2022/04/15 08:50:41;;;;;;;5.07;3.17;;;;;;;14.36;100.00;99887.78;5087240;28;20196;-81
2022/04/15 08:53:09;;;;;;;5.57;3.00;;;;;;;14.34;100.00;99882.56;5086415;28;20241;-81
2022/04/15 08:55:38;;;;;;;5.00;3.10;;;;;;;14.21;100.00;99890.56;5084260;28;20278;-82
2022/04/15 08:58:07;;;;;;;4.17;3.20;;;;;;;14.37;100.00;99893.03;5086406;28;20196;-81
2022/04/15 09:00:36;;;;;;;6.60;3.43;;;;;;;14.35;100.00;99884.28;5086478;28;20283;-82
2022/04/15 09:03:07;;;;;;;4.60;2.90;;;;;;;14.45;100.00;99896.06;5091080;28;20309;-82
2022/04/15 09:05:37;;;;;;;6.93;3.10;;;;;;;14.06;100.00;99880.91;5086554;28;20183;-81
2022/04/15 09:08:13;;;;;;;5.13;3.13;;;;;;;13.91;100.00;99887.28;5039343;28;20211;-81
2022/04/15 09:10:45;;;;;;;5.23;2.83;;;;;;;14.21;100.00;99898.56;5091306;28;20191;-81
2022/04/15 09:13:21;;;;;;;5.33;2.80;;;;;;;14.40;100.00;99883.97;5008586;28;20214;-81
2022/04/15 09:15:54;;;;;;;5.43;2.73;;;;;;;14.57;100.00;99900.56;4950240;28;20214;-81
2022/04/15 09:18:30;;;;;;;5.60;2.80;;;;;;;14.65;100.00;99900.03;4947688;28;20291;-81
2022/04/15 09:21:19;;;;;;;4.80;2.90;;;;;;;14.99;100.00;99893.19;4951970;28;20203;-81
2022/04/15 09:24:00;;;;;;;3.57;2.50;;;;;;;15.46;100.00;99879.13;4948814;28;20203;-81
2022/04/15 09:26:30;;;;;;;6.40;3.00;;;;;;;15.63;100.00;99890.41;4950942;28;20192;-81
2022/04/15 09:29:02;;;;;;;6.07;2.80;;;;;;;15.20;100.00;99884.63;4914067;29;20671;-81
2022/04/15 09:31:32;;;;;;;5.00;2.73;;;;;;;14.89;100.00;99889.47;4939559;29;20241;-80
2022/04/15 09:34:04;;;;;;;4.20;2.57;;;;;;;15.01;100.00;99885.94;4993207;28;20259;-81
2022/04/15 09:36:34;;;;;;;3.07;2.03;;;;;;;15.78;100.00;99880.44;5010589;28;20198;-81
2022/04/15 09:39:11;;;;;;;4.10;2.70;;;;;;;15.65;100.00;99881.34;5006435;28;20206;-81
2022/04/15 09:41:41;;;;;;;5.27;2.63;;;;;;;15.21;100.00;99883.66;4952147;29;20211;-80
2022/04/15 09:44:12;;;;;;;5.20;2.27;;;;;;;15.40;100.00;99887.56;4902265;29;20204;-81
2022/04/15 09:46:44;;;;;;;3.17;2.30;;;;;;;15.62;100.00;99892.22;4961460;28;20202;-81
2022/04/15 09:49:15;;;;;;;3.73;2.27;;;;;;;15.76;100.00;99890.38;4967038;28;20286;-82
2022/04/15 09:51:46;;;;;;;2.67;2.13;;;;;;;15.89;100.00;99896.53;4928214;29;20709;-81
2022/04/15 09:54:26;;;;;;;4.50;2.20;;;;;;;16.37;100.00;99891.97;4964878;28;20261;-81
2022/04/15 09:57:03;;;;;;;5.60;2.10;;;;;;;16.66;100.00;99880.88;4972861;28;20188;-81
2022/04/15 09:59:34;;;;;;;3.30;2.37;;;;;;;16.29;100.00;99886.34;4993462;28;20649;-81
2022/04/15 10:02:06;;;;;;;3.57;2.10;;;;;;;16.66;100.00;99889.75;5028411;28;20297;-80
2022/04/15 10:04:42;;;;;;;3.67;2.10;;;;;;;16.86;100.00;99891.75;5029279;28;20220;-81
2022/04/15 10:07:21;;;;;;;4.33;2.10;;;;;;;17.31;100.00;99880.19;5031785;28;20205;-82
2022/04/15 10:09:56;;;;;;;4.57;2.30;;;;;;;16.53;100.00;99879.16;5062545;28;20643;-81
2022/04/15 10:12:39;;;;;;;2.63;2.27;;;;;;;17.25;100.00;99878.00;5013266;28;20264;-82
2022/04/15 10:15:12;;;;;;;2.97;2.10;;;;;;;16.73;100.00;99877.63;5014812;28;20205;-81
2022/04/15 10:17:41;;;;;;;4.30;2.40;;;;;;;16.77;100.00;99876.41;5006953;28;20202;-80
2022/04/15 10:20:10;;;;;;;3.00;2.40;;;;;;;17.02;100.00;99871.81;4978506;28;20724;-82
2022/04/15 10:22:41;;;;;;;3.87;2.10;;;;;;;17.90;100.00;99871.81;4961326;28;20209;-81
2022/04/15 10:25:12;;;;;;;5.60;2.23;;;;;;;17.81;100.00;99870.75;5009355;28;20198;-82
2022/04/15 10:27:42;;;;;;;2.83;2.10;;;;;;;17.85;100.00;99866.81;5005306;28;20249;-81
2022/04/15 10:30:19;;;;;;;4.13;2.10;;;;;;;17.74;100.00;99862.34;4988639;28;20665;-82
2022/04/15 10:32:49;;;;;;;3.53;2.03;;;;;;;18.72;100.00;99869.34;4895838;29;20230;-81
2022/04/15 10:35:26;;;;;;;3.20;2.00;;;;;;;18.71;100.00;99854.22;4897778;29;20198;-81
2022/04/15 10:38:01;;;;;;;2.80;1.77;;;;;;;19.06;98.52;99857.38;4878254;29;20206;-81
2022/04/15 10:40:34;;;;;;;4.50;2.40;;;;;;;18.47;97.43;99857.16;4861080;29;20222;-81
2022/04/15 10:43:07;;;;;;;2.87;2.50;;;;;;;18.15;100.00;99850.03;4877275;29;20312;-82
2022/04/15 10:45:38;;;;;;;3.30;2.43;;;;;;;18.51;99.45;99856.75;4922622;29;20238;-82
2022/04/15 10:48:09;;;;;;;2.97;1.83;;;;;;;18.99;99.65;99855.34;4917421;29;20202;-81
2022/04/15 10:50:41;;;;;;;2.47;2.00;;;;;;;18.82;95.29;99859.53;4933386;28;20198;-82
2022/04/15 10:53:23;;;;;;;3.43;2.07;;;;;;;17.87;97.73;99851.50;4924827;28;20224;-81
2022/04/15 10:56:09;;;;;;;2.23;1.87;;;;;;;18.49;97.54;99858.72;5006307;28;20202;-83
2022/04/15 11:01:54;;;;;;;3.90;1.90;;;;;;;18.42;94.29;99846.81;4999375;28;20199;-82
2022/04/15 11:04:25;;;;;;;3.70;1.90;;;;;;;18.47;95.04;99849.97;4993392;28;20198;-82
2022/04/15 11:06:55;;;;;;;3.63;1.83;;;;;;;17.95;95.54;99853.50;4990458;28;20281;-82
2022/04/15 11:09:25;;;;;;;2.97;1.73;;;;;;;18.77;100.00;99853.69;4991573;28;20274;-82
2022/04/15 11:12:03;;;;;;;4.17;2.00;;;;;;;19.42;92.42;99855.09;4892458;29;20215;-82
2022/04/15 11:14:36;;;;;;;2.37;1.80;;;;;;;19.16;89.17;99850.19;4859566;29;20313;-82
2022/04/15 11:17:09;;;;;;;3.60;2.03;;;;;;;19.34;92.67;99844.19;4876060;29;20204;-82
2022/04/15 11:19:47;;;;;;;2.47;2.00;;;;;;;18.78;87.21;99858.09;4928932;29;20209;-83
2022/04/15 11:22:24;;;;;;;3.27;2.10;;;;;;;18.44;89.24;99855.59;4933205;29;20197;-83
2022/04/15 11:24:53;;;;;;;3.73;1.80;;;;;;;19.22;92.26;99856.03;4926732;29;20205;-82
2022/04/15 11:27:26;;;;;;;4.30;2.83;;;;;;;19.36;86.80;99856.47;4953044;28;20196;-82
2022/04/15 11:30:04;;;;;;;3.70;2.70;;;;;;;19.74;83.58;99852.22;4952393;28;20197;-83
2022/04/15 11:32:49;;;;;;;3.57;2.20;;;;;;;19.92;79.89;99849.69;4967602;28;20213;-82
2022/04/15 11:35:28;;;;;;;3.53;2.40;;;;;;;19.55;84.54;99850.31;4985812;28;20225;-82
2022/04/15 11:38:04;;;;;;;3.50;1.90;;;;;;;19.59;84.58;99853.59;5063394;28;20204;-82
2022/04/15 11:40:37;;;;;;;5.47;3.03;;;;;;;20.19;83.34;99846.28;5068419;28;20188;-82